sensor_id;sensor_type;location;lat;lon;timestamp;P1;durP1;ratioP1;P2;durP2;ratioP2
6547;SDS011;3307;52.416;16.862;2022-09-28T00:01:06;13.77;;;12.88;;
6547;SDS011;3307;52.416;16.862;2022-09-28T00:03:42;14.20;;;13.20;;
6547;SDS011;3307;52.416;16.862;2022-09-28T00:06:09;15.18;;;14.05;;
6547;SDS011;3307;52.416;16.862;2022-09-28T00:08:36;13.88;;;12.88;;
6547;SDS011;3307;52.416;16.862;2022-09-28T00:11:02;15.70;;;14.47;;
6547;SDS011;3307;52.416;16.862;2022-09-28T00:13:28;15.35;;;14.13;;
6547;SDS011;3307;52.416;16.862;2022-09-28T00:16:07;14.77;;;13.68;;
6547;SDS011;3307;52.416;16.862;2022-09-28T00:18:34;15.30;;;14.30;;
6547;SDS011;3307;52.416;16.862;2022-09-28T00:21:04;14.40;;;12.93;;
6547;SDS011;3307;52.416;16.862;2022-09-28T00:23:30;14.88;;;13.70;;
6547;SDS011;3307;52.416;16.862;2022-09-28T00:25:59;13.87;;;12.87;;
6547;SDS011;3307;52.416;16.862;2022-09-28T00:28:26;14.38;;;13.18;;
6547;SDS011;3307;52.416;16.862;2022-09-28T00:30:53;14.73;;;13.53;;
6547;SDS011;3307;52.416;16.862;2022-09-28T00:33:23;15.02;;;14.02;;
6547;SDS011;3307;52.416;16.862;2022-09-28T00:35:58;14.90;;;13.77;;
6547;SDS011;3307;52.416;16.862;2022-09-28T00:38:27;16.75;;;15.35;;
6547;SDS011;3307;52.416;16.862;2022-09-28T00:40:54;16.25;;;15.05;;
6547;SDS011;3307;52.416;16.862;2022-09-28T00:43:20;15.93;;;14.40;;
6547;SDS011;3307;52.416;16.862;2022-09-28T00:45:49;14.65;;;13.43;;
6547;SDS011;3307;52.416;16.862;2022-09-28T00:48:19;14.43;;;13.35;;
6547;SDS011;3307;52.416;16.862;2022-09-28T00:50:48;15.63;;;14.27;;
6547;SDS011;3307;52.416;16.862;2022-09-28T00:53:18;15.60;;;14.40;;
6547;SDS011;3307;52.416;16.862;2022-09-28T00:55:47;15.57;;;14.27;;
6547;SDS011;3307;52.416;16.862;2022-09-28T00:58:21;15.95;;;14.55;;
6547;SDS011;3307;52.416;16.862;2022-09-28T01:00:53;15.60;;;14.40;;
6547;SDS011;3307;52.416;16.862;2022-09-28T01:03:22;17.48;;;15.98;;
6547;SDS011;3307;52.416;16.862;2022-09-28T01:05:50;16.90;;;15.50;;
6547;SDS011;3307;52.416;16.862;2022-09-28T01:08:17;15.63;;;14.52;;
6547;SDS011;3307;52.416;16.862;2022-09-28T01:10:45;14.98;;;13.68;;
6547;SDS011;3307;52.416;16.862;2022-09-28T01:13:10;14.90;;;13.70;;
6547;SDS011;3307;52.416;16.862;2022-09-28T01:15:39;16.23;;;14.82;;
6547;SDS011;3307;52.416;16.862;2022-09-28T01:18:12;15.40;;;14.20;;
6547;SDS011;3307;52.416;16.862;2022-09-28T01:21:19;16.10;;;14.73;;
6547;SDS011;3307;52.416;16.862;2022-09-28T01:23:53;16.33;;;15.13;;
6547;SDS011;3307;52.416;16.862;2022-09-28T01:31:58;15.85;;;14.55;;
6547;SDS011;3307;52.416;16.862;2022-09-28T01:34:40;15.75;;;14.45;;
6547;SDS011;3307;52.416;16.862;2022-09-28T01:37:12;16.20;;;14.93;;
6547;SDS011;3307;52.416;16.862;2022-09-28T01:39:39;15.30;;;14.00;;
6547;SDS011;3307;52.416;16.862;2022-09-28T01:42:09;16.60;;;15.25;;
6547;SDS011;3307;52.416;16.862;2022-09-28T01:44:37;14.95;;;13.65;;
6547;SDS011;3307;52.416;16.862;2022-09-28T01:47:06;15.63;;;14.23;;
6547;SDS011;3307;52.416;16.862;2022-09-28T01:49:34;16.70;;;15.30;;
6547;SDS011;3307;52.416;16.862;2022-09-28T01:54:56;15.68;;;14.38;;
6547;SDS011;3307;52.416;16.862;2022-09-28T01:57:25;17.88;;;16.27;;
6547;SDS011;3307;52.416;16.862;2022-09-28T02:05:36;16.48;;;14.82;;
6547;SDS011;3307;52.416;16.862;2022-09-28T02:11:14;17.15;;;15.75;;
6547;SDS011;3307;52.416;16.862;2022-09-28T02:13:42;16.20;;;14.90;;
6547;SDS011;3307;52.416;16.862;2022-09-28T02:16:16;16.58;;;15.18;;
6547;SDS011;3307;52.416;16.862;2022-09-28T02:18:45;16.40;;;14.95;;
6547;SDS011;3307;52.416;16.862;2022-09-28T02:21:12;16.67;;;15.30;;
6547;SDS011;3307;52.416;16.862;2022-09-28T02:23:41;17.13;;;15.65;;
6547;SDS011;3307;52.416;16.862;2022-09-28T02:26:15;16.80;;;15.18;;
6547;SDS011;3307;52.416;16.862;2022-09-28T02:28:41;16.02;;;14.82;;
6547;SDS011;3307;52.416;16.862;2022-09-28T02:31:07;17.53;;;15.57;;
6547;SDS011;3307;52.416;16.862;2022-09-28T02:33:33;16.27;;;14.57;;
6547;SDS011;3307;52.416;16.862;2022-09-28T02:36:01;15.82;;;14.43;;
6547;SDS011;3307;52.416;16.862;2022-09-28T02:38:27;16.45;;;15.13;;
6547;SDS011;3307;52.416;16.862;2022-09-28T02:41:01;16.60;;;15.20;;
6547;SDS011;3307;52.416;16.862;2022-09-28T02:49:23;15.73;;;14.52;;
6547;SDS011;3307;52.416;16.862;2022-09-28T02:52:12;16.60;;;15.05;;
6547;SDS011;3307;52.416;16.862;2022-09-28T03:00:21;17.42;;;15.82;;
6547;SDS011;3307;52.416;16.862;2022-09-28T03:05:30;17.40;;;15.90;;
6547;SDS011;3307;52.416;16.862;2022-09-28T03:08:06;15.75;;;14.48;;
6547;SDS011;3307;52.416;16.862;2022-09-28T03:10:41;15.90;;;14.50;;
6547;SDS011;3307;52.416;16.862;2022-09-28T03:13:08;17.38;;;15.88;;
6547;SDS011;3307;52.416;16.862;2022-09-28T03:15:35;16.75;;;15.35;;
6547;SDS011;3307;52.416;16.862;2022-09-28T03:18:01;15.52;;;14.30;;
6547;SDS011;3307;52.416;16.862;2022-09-28T03:20:28;15.63;;;14.23;;
6547;SDS011;3307;52.416;16.862;2022-09-28T03:22:54;15.80;;;14.50;;
6547;SDS011;3307;52.416;16.862;2022-09-28T03:25:19;16.10;;;15.00;;
6547;SDS011;3307;52.416;16.862;2022-09-28T03:27:45;16.73;;;15.13;;
6547;SDS011;3307;52.416;16.862;2022-09-28T03:30:10;16.27;;;14.87;;
6547;SDS011;3307;52.416;16.862;2022-09-28T03:32:36;18.00;;;16.30;;
6547;SDS011;3307;52.416;16.862;2022-09-28T03:35:03;16.63;;;15.17;;
6547;SDS011;3307;52.416;16.862;2022-09-28T03:37:28;16.98;;;15.23;;
6547;SDS011;3307;52.416;16.862;2022-09-28T03:39:54;18.10;;;16.23;;
6547;SDS011;3307;52.416;16.862;2022-09-28T03:42:19;18.70;;;17.00;;
6547;SDS011;3307;52.416;16.862;2022-09-28T03:44:45;16.57;;;15.17;;
6547;SDS011;3307;52.416;16.862;2022-09-28T03:47:10;16.97;;;15.47;;
6547;SDS011;3307;52.416;16.862;2022-09-28T03:49:36;17.40;;;15.73;;
6547;SDS011;3307;52.416;16.862;2022-09-28T03:52:01;17.80;;;16.20;;
6547;SDS011;3307;52.416;16.862;2022-09-28T03:54:27;17.53;;;16.00;;
6547;SDS011;3307;52.416;16.862;2022-09-28T03:56:52;16.40;;;15.20;;
6547;SDS011;3307;52.416;16.862;2022-09-28T03:59:18;17.03;;;15.37;;
6547;SDS011;3307;52.416;16.862;2022-09-28T04:01:43;17.23;;;15.63;;
6547;SDS011;3307;52.416;16.862;2022-09-28T04:04:12;19.27;;;16.13;;
6547;SDS011;3307;52.416;16.862;2022-09-28T04:06:38;16.05;;;14.95;;
6547;SDS011;3307;52.416;16.862;2022-09-28T04:09:03;16.20;;;14.90;;
6547;SDS011;3307;52.416;16.862;2022-09-28T04:11:29;17.73;;;15.17;;
6547;SDS011;3307;52.416;16.862;2022-09-28T04:13:54;16.70;;;15.30;;
6547;SDS011;3307;52.416;16.862;2022-09-28T04:16:20;16.60;;;15.10;;
6547;SDS011;3307;52.416;16.862;2022-09-28T04:18:45;17.13;;;15.73;;
6547;SDS011;3307;52.416;16.862;2022-09-28T04:21:12;18.08;;;16.42;;
6547;SDS011;3307;52.416;16.862;2022-09-28T04:23:40;18.60;;;16.80;;
6547;SDS011;3307;52.416;16.862;2022-09-28T04:26:06;17.60;;;16.00;;
6547;SDS011;3307;52.416;16.862;2022-09-28T04:28:33;16.77;;;15.23;;
6547;SDS011;3307;52.416;16.862;2022-09-28T04:31:18;18.67;;;16.85;;
6547;SDS011;3307;52.416;16.862;2022-09-28T04:33:45;17.63;;;16.13;;
6547;SDS011;3307;52.416;16.862;2022-09-28T04:36:10;16.57;;;15.17;;
6547;SDS011;3307;52.416;16.862;2022-09-28T04:38:36;22.90;;;20.60;;
6547;SDS011;3307;52.416;16.862;2022-09-28T04:41:02;17.77;;;16.35;;
6547;SDS011;3307;52.416;16.862;2022-09-28T04:43:28;18.33;;;16.85;;
6547;SDS011;3307;52.416;16.862;2022-09-28T04:45:57;20.17;;;18.47;;
6547;SDS011;3307;52.416;16.862;2022-09-28T04:48:24;16.33;;;15.02;;
6547;SDS011;3307;52.416;16.862;2022-09-28T04:50:57;17.25;;;15.75;;
6547;SDS011;3307;52.416;16.862;2022-09-28T04:53:24;17.58;;;15.88;;
6547;SDS011;3307;52.416;16.862;2022-09-28T04:58:33;18.67;;;17.08;;
6547;SDS011;3307;52.416;16.862;2022-09-28T05:01:00;18.60;;;17.02;;
6547;SDS011;3307;52.416;16.862;2022-09-28T05:03:26;18.95;;;17.08;;
6547;SDS011;3307;52.416;16.862;2022-09-28T05:05:52;18.03;;;16.50;;
6547;SDS011;3307;52.416;16.862;2022-09-28T05:08:17;16.97;;;15.70;;
6547;SDS011;3307;52.416;16.862;2022-09-28T05:10:43;23.43;;;21.13;;
6547;SDS011;3307;52.416;16.862;2022-09-28T05:13:09;27.83;;;24.83;;
6547;SDS011;3307;52.416;16.862;2022-09-28T05:15:36;27.73;;;24.73;;
6547;SDS011;3307;52.416;16.862;2022-09-28T05:18:02;31.98;;;27.55;;
6547;SDS011;3307;52.416;16.862;2022-09-28T05:20:28;33.47;;;29.70;;
6547;SDS011;3307;52.416;16.862;2022-09-28T05:22:54;32.17;;;28.80;;
6547;SDS011;3307;52.416;16.862;2022-09-28T05:25:19;32.47;;;29.07;;
6547;SDS011;3307;52.416;16.862;2022-09-28T05:27:45;37.70;;;32.87;;
6547;SDS011;3307;52.416;16.862;2022-09-28T05:30:10;38.60;;;34.27;;
6547;SDS011;3307;52.416;16.862;2022-09-28T05:32:42;36.17;;;32.23;;
6547;SDS011;3307;52.416;16.862;2022-09-28T05:35:08;35.28;;;31.58;;
6547;SDS011;3307;52.416;16.862;2022-09-28T05:37:35;40.10;;;33.75;;
6547;SDS011;3307;52.416;16.862;2022-09-28T05:40:01;35.53;;;32.25;;
6547;SDS011;3307;52.416;16.862;2022-09-28T05:42:28;37.20;;;33.35;;
6547;SDS011;3307;52.416;16.862;2022-09-28T05:44:53;37.50;;;33.47;;
6547;SDS011;3307;52.416;16.862;2022-09-28T05:47:19;34.07;;;30.57;;
6547;SDS011;3307;52.416;16.862;2022-09-28T05:49:44;92.67;;;66.47;;
6547;SDS011;3307;52.416;16.862;2022-09-28T05:52:10;37.23;;;33.23;;
6547;SDS011;3307;52.416;16.862;2022-09-28T05:54:35;38.83;;;34.77;;
6547;SDS011;3307;52.416;16.862;2022-09-28T05:57:00;49.73;;;38.07;;
6547;SDS011;3307;52.416;16.862;2022-09-28T05:59:26;47.13;;;38.17;;
6547;SDS011;3307;52.416;16.862;2022-09-28T06:01:51;37.63;;;32.30;;
6547;SDS011;3307;52.416;16.862;2022-09-28T06:04:16;31.93;;;28.30;;
6547;SDS011;3307;52.416;16.862;2022-09-28T06:06:42;26.80;;;24.13;;
6547;SDS011;3307;52.416;16.862;2022-09-28T06:09:08;25.57;;;23.23;;
6547;SDS011;3307;52.416;16.862;2022-09-28T06:11:33;23.10;;;20.70;;
6547;SDS011;3307;52.416;16.862;2022-09-28T06:13:58;21.60;;;19.63;;
6547;SDS011;3307;52.416;16.862;2022-09-28T06:16:24;22.70;;;20.80;;
6547;SDS011;3307;52.416;16.862;2022-09-28T06:18:49;21.30;;;19.40;;
6547;SDS011;3307;52.416;16.862;2022-09-28T06:21:15;20.97;;;19.17;;
6547;SDS011;3307;52.416;16.862;2022-09-28T06:23:40;18.00;;;16.40;;
6547;SDS011;3307;52.416;16.862;2022-09-28T06:26:06;16.93;;;15.63;;
6547;SDS011;3307;52.416;16.862;2022-09-28T06:28:31;15.83;;;14.50;;
6547;SDS011;3307;52.416;16.862;2022-09-28T06:30:58;15.33;;;14.07;;
6547;SDS011;3307;52.416;16.862;2022-09-28T06:33:24;17.58;;;16.20;;
6547;SDS011;3307;52.416;16.862;2022-09-28T06:35:50;15.38;;;14.27;;
6547;SDS011;3307;52.416;16.862;2022-09-28T06:38:16;14.67;;;13.20;;
6547;SDS011;3307;52.416;16.862;2022-09-28T06:40:41;15.17;;;14.03;;
6547;SDS011;3307;52.416;16.862;2022-09-28T06:43:10;14.70;;;13.60;;
6547;SDS011;3307;52.416;16.862;2022-09-28T06:45:38;15.00;;;14.00;;
6547;SDS011;3307;52.416;16.862;2022-09-28T06:48:04;14.60;;;13.40;;
6547;SDS011;3307;52.416;16.862;2022-09-28T06:50:31;15.00;;;13.80;;
6547;SDS011;3307;52.416;16.862;2022-09-28T06:53:00;15.80;;;14.40;;
6547;SDS011;3307;52.416;16.862;2022-09-28T06:55:25;16.00;;;14.80;;
6547;SDS011;3307;52.416;16.862;2022-09-28T06:57:58;13.80;;;12.63;;
6547;SDS011;3307;52.416;16.862;2022-09-28T07:00:29;14.82;;;13.73;;
6547;SDS011;3307;52.416;16.862;2022-09-28T07:02:56;14.05;;;12.63;;
6547;SDS011;3307;52.416;16.862;2022-09-28T07:05:22;12.70;;;11.87;;
6547;SDS011;3307;52.416;16.862;2022-09-28T07:07:51;13.27;;;12.25;;
6547;SDS011;3307;52.416;16.862;2022-09-28T07:10:23;12.25;;;11.35;;
6547;SDS011;3307;52.416;16.862;2022-09-28T07:12:51;13.15;;;12.00;;
6547;SDS011;3307;52.416;16.862;2022-09-28T07:15:17;12.93;;;11.90;;
6547;SDS011;3307;52.416;16.862;2022-09-28T07:17:43;13.60;;;12.70;;
6547;SDS011;3307;52.416;16.862;2022-09-28T07:20:09;12.33;;;11.63;;
6547;SDS011;3307;52.416;16.862;2022-09-28T07:22:34;13.23;;;12.23;;
6547;SDS011;3307;52.416;16.862;2022-09-28T07:24:59;12.93;;;11.77;;
6547;SDS011;3307;52.416;16.862;2022-09-28T07:27:25;13.23;;;12.03;;
6547;SDS011;3307;52.416;16.862;2022-09-28T07:29:51;12.87;;;12.07;;
6547;SDS011;3307;52.416;16.862;2022-09-28T07:32:18;12.52;;;11.73;;
6547;SDS011;3307;52.416;16.862;2022-09-28T07:34:45;13.02;;;12.15;;
6547;SDS011;3307;52.416;16.862;2022-09-28T07:37:12;12.73;;;11.82;;
6547;SDS011;3307;52.416;16.862;2022-09-28T07:39:38;12.57;;;11.80;;
6547;SDS011;3307;52.416;16.862;2022-09-28T07:42:23;13.02;;;12.23;;
6547;SDS011;3307;52.416;16.862;2022-09-28T07:44:49;12.63;;;11.77;;
6547;SDS011;3307;52.416;16.862;2022-09-28T07:47:15;12.30;;;11.60;;
6547;SDS011;3307;52.416;16.862;2022-09-28T07:49:42;12.25;;;11.40;;
6547;SDS011;3307;52.416;16.862;2022-09-28T07:52:08;12.00;;;11.20;;
6547;SDS011;3307;52.416;16.862;2022-09-28T07:54:34;12.07;;;11.27;;
6547;SDS011;3307;52.416;16.862;2022-09-28T07:57:00;14.57;;;13.57;;
6547;SDS011;3307;52.416;16.862;2022-09-28T07:59:25;13.40;;;12.60;;
6547;SDS011;3307;52.416;16.862;2022-09-28T08:01:51;13.10;;;12.20;;
6547;SDS011;3307;52.416;16.862;2022-09-28T08:04:16;12.80;;;11.87;;
6547;SDS011;3307;52.416;16.862;2022-09-28T08:06:42;13.77;;;12.70;;
6547;SDS011;3307;52.416;16.862;2022-09-28T08:09:08;13.38;;;12.52;;
6547;SDS011;3307;52.416;16.862;2022-09-28T08:11:33;12.17;;;11.30;;
6547;SDS011;3307;52.416;16.862;2022-09-28T08:13:58;12.70;;;11.70;;
6547;SDS011;3307;52.416;16.862;2022-09-28T08:16:24;12.23;;;11.33;;
6547;SDS011;3307;52.416;16.862;2022-09-28T08:18:51;15.00;;;13.70;;
6547;SDS011;3307;52.416;16.862;2022-09-28T08:21:16;22.63;;;20.37;;
6547;SDS011;3307;52.416;16.862;2022-09-28T08:24:00;26.35;;;23.65;;
6547;SDS011;3307;52.416;16.862;2022-09-28T08:26:26;21.90;;;19.60;;
6547;SDS011;3307;52.416;16.862;2022-09-28T08:28:54;13.35;;;12.35;;
6547;SDS011;3307;52.416;16.862;2022-09-28T08:31:19;12.10;;;11.40;;
6547;SDS011;3307;52.416;16.862;2022-09-28T08:33:44;12.80;;;12.00;;
6547;SDS011;3307;52.416;16.862;2022-09-28T08:36:10;13.67;;;12.77;;
6547;SDS011;3307;52.416;16.862;2022-09-28T08:38:35;12.17;;;11.37;;
6547;SDS011;3307;52.416;16.862;2022-09-28T08:46:03;12.00;;;11.35;;
6547;SDS011;3307;52.416;16.862;2022-09-28T08:48:30;12.47;;;11.67;;
6547;SDS011;3307;52.416;16.862;2022-09-28T08:51:18;11.80;;;11.10;;
6547;SDS011;3307;52.416;16.862;2022-09-28T08:54:02;11.93;;;11.15;;
6547;SDS011;3307;52.416;16.862;2022-09-28T08:56:46;13.77;;;12.90;;
6547;SDS011;3307;52.416;16.862;2022-09-28T08:59:14;13.20;;;12.40;;
6547;SDS011;3307;52.416;16.862;2022-09-28T09:01:54;12.10;;;11.40;;
6547;SDS011;3307;52.416;16.862;2022-09-28T09:04:22;12.23;;;11.43;;
6547;SDS011;3307;52.416;16.862;2022-09-28T09:06:54;11.20;;;10.50;;
6547;SDS011;3307;52.416;16.862;2022-09-28T09:20:24;11.63;;;10.93;;
6547;SDS011;3307;52.416;16.862;2022-09-28T09:22:59;11.68;;;10.88;;
6547;SDS011;3307;52.416;16.862;2022-09-28T09:25:26;12.85;;;12.10;;
6547;SDS011;3307;52.416;16.862;2022-09-28T09:33:44;11.20;;;10.63;;
6547;SDS011;3307;52.416;16.862;2022-09-28T09:45:08;12.55;;;11.75;;
6547;SDS011;3307;52.416;16.862;2022-09-28T09:48:00;10.68;;;10.15;;
6547;SDS011;3307;52.416;16.862;2022-09-28T09:53:05;11.30;;;10.60;;
6547;SDS011;3307;52.416;16.862;2022-09-28T09:55:38;11.88;;;11.18;;
6547;SDS011;3307;52.416;16.862;2022-09-28T09:58:08;11.48;;;10.77;;
6547;SDS011;3307;52.416;16.862;2022-09-28T10:00:40;11.07;;;10.48;;
6547;SDS011;3307;52.416;16.862;2022-09-28T10:03:12;11.40;;;10.50;;
6547;SDS011;3307;52.416;16.862;2022-09-28T10:05:41;11.38;;;10.48;;
6547;SDS011;3307;52.416;16.862;2022-09-28T10:10:34;10.80;;;10.17;;
6547;SDS011;3307;52.416;16.862;2022-09-28T10:13:01;11.30;;;10.70;;
6547;SDS011;3307;52.416;16.862;2022-09-28T10:15:28;11.05;;;10.45;;
6547;SDS011;3307;52.416;16.862;2022-09-28T10:17:55;11.18;;;10.57;;
6547;SDS011;3307;52.416;16.862;2022-09-28T10:20:22;11.02;;;10.40;;
6547;SDS011;3307;52.416;16.862;2022-09-28T10:22:49;11.27;;;10.25;;
6547;SDS011;3307;52.416;16.862;2022-09-28T10:25:15;10.43;;;9.82;;
6547;SDS011;3307;52.416;16.862;2022-09-28T10:27:42;11.85;;;11.05;;
6547;SDS011;3307;52.416;16.862;2022-09-28T10:30:20;12.02;;;11.32;;
6547;SDS011;3307;52.416;16.862;2022-09-28T10:32:48;11.45;;;10.80;;
6547;SDS011;3307;52.416;16.862;2022-09-28T10:37:59;11.85;;;11.02;;
6547;SDS011;3307;52.416;16.862;2022-09-28T10:40:30;10.23;;;9.73;;
6547;SDS011;3307;52.416;16.862;2022-09-28T10:43:31;10.52;;;10.02;;
6547;SDS011;3307;52.416;16.862;2022-09-28T10:46:20;10.10;;;9.60;;
6547;SDS011;3307;52.416;16.862;2022-09-28T10:48:51;10.50;;;9.85;;
6547;SDS011;3307;52.416;16.862;2022-09-28T10:51:18;10.30;;;9.70;;
6547;SDS011;3307;52.416;16.862;2022-09-28T10:53:57;10.30;;;9.80;;
6547;SDS011;3307;52.416;16.862;2022-09-28T10:56:26;10.37;;;9.77;;
6547;SDS011;3307;52.416;16.862;2022-09-28T10:58:53;10.05;;;9.55;;
6547;SDS011;3307;52.416;16.862;2022-09-28T11:01:20;9.97;;;9.47;;
6547;SDS011;3307;52.416;16.862;2022-09-28T11:03:48;11.33;;;10.60;;
6547;SDS011;3307;52.416;16.862;2022-09-28T11:06:25;9.77;;;9.27;;
6547;SDS011;3307;52.416;16.862;2022-09-28T11:08:53;10.05;;;9.48;;
6547;SDS011;3307;52.416;16.862;2022-09-28T11:11:21;10.55;;;9.88;;
6547;SDS011;3307;52.416;16.862;2022-09-28T11:13:55;10.27;;;9.57;;
6547;SDS011;3307;52.416;16.862;2022-09-28T11:16:34;9.50;;;9.10;;
6547;SDS011;3307;52.416;16.862;2022-09-28T11:19:25;9.82;;;9.32;;
6547;SDS011;3307;52.416;16.862;2022-09-28T11:21:53;10.05;;;9.45;;
6547;SDS011;3307;52.416;16.862;2022-09-28T11:24:19;10.20;;;9.70;;
6547;SDS011;3307;52.416;16.862;2022-09-28T11:26:51;9.98;;;9.48;;
6547;SDS011;3307;52.416;16.862;2022-09-28T11:29:34;10.48;;;9.98;;
6547;SDS011;3307;52.416;16.862;2022-09-28T11:32:02;11.10;;;10.30;;
6547;SDS011;3307;52.416;16.862;2022-09-28T11:34:33;10.50;;;9.90;;
6547;SDS011;3307;52.416;16.862;2022-09-28T11:39:28;11.20;;;10.40;;
6547;SDS011;3307;52.416;16.862;2022-09-28T11:42:00;11.20;;;10.50;;
6547;SDS011;3307;52.416;16.862;2022-09-28T11:44:41;10.88;;;10.27;;
6547;SDS011;3307;52.416;16.862;2022-09-28T11:50:06;10.98;;;10.18;;
6547;SDS011;3307;52.416;16.862;2022-09-28T11:58:36;11.10;;;10.60;;
6547;SDS011;3307;52.416;16.862;2022-09-28T12:03:49;11.97;;;11.20;;
6547;SDS011;3307;52.416;16.862;2022-09-28T12:06:17;11.43;;;10.80;;
6547;SDS011;3307;52.416;16.862;2022-09-28T12:08:50;11.33;;;10.70;;
6547;SDS011;3307;52.416;16.862;2022-09-28T12:11:19;11.35;;;10.85;;
6547;SDS011;3307;52.416;16.862;2022-09-28T12:13:48;12.10;;;11.30;;
6547;SDS011;3307;52.416;16.862;2022-09-28T12:16:19;11.97;;;11.37;;
6547;SDS011;3307;52.416;16.862;2022-09-28T12:18:58;11.60;;;10.90;;
6547;SDS011;3307;52.416;16.862;2022-09-28T12:24:05;10.40;;;9.70;;
6547;SDS011;3307;52.416;16.862;2022-09-28T12:26:46;10.73;;;10.03;;
6547;SDS011;3307;52.416;16.862;2022-09-28T12:29:28;10.60;;;10.00;;
6547;SDS011;3307;52.416;16.862;2022-09-28T12:32:00;9.85;;;9.25;;
6547;SDS011;3307;52.416;16.862;2022-09-28T12:34:31;10.35;;;9.63;;
6547;SDS011;3307;52.416;16.862;2022-09-28T12:37:14;10.70;;;10.00;;
6547;SDS011;3307;52.416;16.862;2022-09-28T12:39:50;10.35;;;9.75;;
6547;SDS011;3307;52.416;16.862;2022-09-28T12:42:22;11.07;;;10.30;;
6547;SDS011;3307;52.416;16.862;2022-09-28T12:45:15;12.00;;;11.02;;
6547;SDS011;3307;52.416;16.862;2022-09-28T12:48:08;11.35;;;10.70;;
6547;SDS011;3307;52.416;16.862;2022-09-28T12:56:03;10.07;;;9.57;;
6547;SDS011;3307;52.416;16.862;2022-09-28T12:58:39;11.77;;;11.07;;
6547;SDS011;3307;52.416;16.862;2022-09-28T13:01:26;10.90;;;10.30;;
6547;SDS011;3307;52.416;16.862;2022-09-28T13:12:22;11.63;;;11.00;;
6547;SDS011;3307;52.416;16.862;2022-09-28T13:25:38;13.57;;;12.68;;
6547;SDS011;3307;52.416;16.862;2022-09-28T13:28:08;13.07;;;12.07;;
6547;SDS011;3307;52.416;16.862;2022-09-28T13:30:34;12.60;;;11.70;;
6547;SDS011;3307;52.416;16.862;2022-09-28T13:33:01;12.48;;;11.65;;
6547;SDS011;3307;52.416;16.862;2022-09-28T13:35:28;12.10;;;11.40;;
6547;SDS011;3307;52.416;16.862;2022-09-28T13:44:18;13.35;;;12.52;;
6547;SDS011;3307;52.416;16.862;2022-09-28T13:55:22;15.48;;;14.43;;
6547;SDS011;3307;52.416;16.862;2022-09-28T13:57:53;16.45;;;15.25;;
6547;SDS011;3307;52.416;16.862;2022-09-28T14:03:03;12.65;;;11.85;;
6547;SDS011;3307;52.416;16.862;2022-09-28T14:05:46;12.95;;;12.07;;
6547;SDS011;3307;52.416;16.862;2022-09-28T14:08:32;13.95;;;12.85;;
6547;SDS011;3307;52.416;16.862;2022-09-28T14:16:32;12.77;;;11.90;;
6547;SDS011;3307;52.416;16.862;2022-09-28T14:21:38;14.63;;;13.53;;
6547;SDS011;3307;52.416;16.862;2022-09-28T14:25:13;13.25;;;12.25;;
6547;SDS011;3307;52.416;16.862;2022-09-28T14:27:28;20.42;;;18.63;;
6547;SDS011;3307;52.416;16.862;2022-09-28T14:32:35;13.00;;;12.20;;
6547;SDS011;3307;52.416;16.862;2022-09-28T14:35:03;12.18;;;11.20;;
6547;SDS011;3307;52.416;16.862;2022-09-28T14:37:34;12.98;;;12.00;;
6547;SDS011;3307;52.416;16.862;2022-09-28T14:40:24;13.02;;;12.13;;
6547;SDS011;3307;52.416;16.862;2022-09-28T14:43:20;13.60;;;12.60;;
6547;SDS011;3307;52.416;16.862;2022-09-28T14:45:50;12.55;;;11.85;;
6547;SDS011;3307;52.416;16.862;2022-09-28T14:48:49;12.65;;;11.75;;
6547;SDS011;3307;52.416;16.862;2022-09-28T14:53:50;12.98;;;12.07;;
6547;SDS011;3307;52.416;16.862;2022-09-28T14:56:17;12.80;;;11.90;;
6547;SDS011;3307;52.416;16.862;2022-09-28T14:58:43;11.35;;;10.55;;
6547;SDS011;3307;52.416;16.862;2022-09-28T15:01:17;13.60;;;12.63;;
6547;SDS011;3307;52.416;16.862;2022-09-28T15:03:45;13.50;;;12.50;;
6547;SDS011;3307;52.416;16.862;2022-09-28T15:06:16;12.55;;;11.43;;
6547;SDS011;3307;52.416;16.862;2022-09-28T15:08:43;14.30;;;13.20;;
6547;SDS011;3307;52.416;16.862;2022-09-28T15:11:17;21.57;;;19.47;;
6547;SDS011;3307;52.416;16.862;2022-09-28T15:13:44;14.25;;;13.27;;
6547;SDS011;3307;52.416;16.862;2022-09-28T15:16:11;15.07;;;14.07;;
6547;SDS011;3307;52.416;16.862;2022-09-28T15:21:15;10.18;;;9.43;;
6547;SDS011;3307;52.416;16.862;2022-09-28T15:23:41;13.10;;;12.20;;
6547;SDS011;3307;52.416;16.862;2022-09-28T15:28:51;11.85;;;11.18;;
6547;SDS011;3307;52.416;16.862;2022-09-28T15:31:18;13.03;;;12.07;;
6547;SDS011;3307;52.416;16.862;2022-09-28T15:33:45;12.45;;;11.65;;
6547;SDS011;3307;52.416;16.862;2022-09-28T15:36:39;13.50;;;12.40;;
6547;SDS011;3307;52.416;16.862;2022-09-28T15:39:10;16.98;;;15.57;;
6547;SDS011;3307;52.416;16.862;2022-09-28T15:41:37;15.55;;;14.45;;
6547;SDS011;3307;52.416;16.862;2022-09-28T15:44:04;15.50;;;14.40;;
6547;SDS011;3307;52.416;16.862;2022-09-28T15:46:42;13.98;;;12.70;;
6547;SDS011;3307;52.416;16.862;2022-09-28T15:49:22;14.48;;;13.48;;
6547;SDS011;3307;52.416;16.862;2022-09-28T15:51:50;14.20;;;12.98;;
6547;SDS011;3307;52.416;16.862;2022-09-28T15:54:24;15.80;;;14.57;;
6547;SDS011;3307;52.416;16.862;2022-09-28T15:56:58;15.02;;;13.73;;
6547;SDS011;3307;52.416;16.862;2022-09-28T15:59:33;17.48;;;16.00;;
6547;SDS011;3307;52.416;16.862;2022-09-28T16:04:46;15.32;;;14.13;;
6547;SDS011;3307;52.416;16.862;2022-09-28T16:12:17;14.65;;;13.55;;
6547;SDS011;3307;52.416;16.862;2022-09-28T16:14:45;17.85;;;16.52;;
6547;SDS011;3307;52.416;16.862;2022-09-28T16:17:18;17.35;;;15.85;;
6547;SDS011;3307;52.416;16.862;2022-09-28T16:19:55;19.38;;;17.73;;
6547;SDS011;3307;52.416;16.862;2022-09-28T16:22:20;20.93;;;19.13;;
6547;SDS011;3307;52.416;16.862;2022-09-28T16:24:56;20.52;;;18.52;;
6547;SDS011;3307;52.416;16.862;2022-09-28T16:27:40;18.40;;;16.95;;
6547;SDS011;3307;52.416;16.862;2022-09-28T16:30:15;16.77;;;15.30;;
6547;SDS011;3307;52.416;16.862;2022-09-28T16:35:51;15.63;;;14.43;;
6547;SDS011;3307;52.416;16.862;2022-09-28T16:38:17;16.60;;;15.40;;
6547;SDS011;3307;52.416;16.862;2022-09-28T16:40:44;15.70;;;14.50;;
6547;SDS011;3307;52.416;16.862;2022-09-28T16:43:20;16.70;;;15.40;;
6547;SDS011;3307;52.416;16.862;2022-09-28T16:45:50;16.70;;;15.32;;
6547;SDS011;3307;52.416;16.862;2022-09-28T16:48:24;21.02;;;19.25;;
6547;SDS011;3307;52.416;16.862;2022-09-28T16:50:50;19.10;;;17.70;;
6547;SDS011;3307;52.416;16.862;2022-09-28T16:53:19;19.35;;;17.75;;
6547;SDS011;3307;52.416;16.862;2022-09-28T16:56:03;18.20;;;16.83;;
6547;SDS011;3307;52.416;16.862;2022-09-28T16:58:29;18.25;;;16.95;;
6547;SDS011;3307;52.416;16.862;2022-09-28T17:00:56;17.40;;;16.10;;
6547;SDS011;3307;52.416;16.862;2022-09-28T17:03:23;16.58;;;15.35;;
6547;SDS011;3307;52.416;16.862;2022-09-28T17:05:49;20.50;;;18.80;;
6547;SDS011;3307;52.416;16.862;2022-09-28T17:08:17;22.27;;;20.48;;
6547;SDS011;3307;52.416;16.862;2022-09-28T17:10:53;26.83;;;24.63;;
6547;SDS011;3307;52.416;16.862;2022-09-28T17:13:20;30.63;;;27.60;;
6547;SDS011;3307;52.416;16.862;2022-09-28T17:15:47;33.25;;;30.25;;
6547;SDS011;3307;52.416;16.862;2022-09-28T17:18:14;23.15;;;20.85;;
6547;SDS011;3307;52.416;16.862;2022-09-28T17:20:40;27.45;;;24.90;;
6547;SDS011;3307;52.416;16.862;2022-09-28T17:23:08;30.33;;;27.52;;
6547;SDS011;3307;52.416;16.862;2022-09-28T17:25:34;29.43;;;26.67;;
6547;SDS011;3307;52.416;16.862;2022-09-28T17:28:00;27.63;;;24.80;;
6547;SDS011;3307;52.416;16.862;2022-09-28T17:30:25;27.60;;;24.90;;
6547;SDS011;3307;52.416;16.862;2022-09-28T17:32:51;26.17;;;23.47;;